Time;durP1;ratioP1;P1;durP2;ratioP2;P2;SDS_P1;SDS_P2;PMS_P1;PMS_P2;Temp;Humidity;BMP_temperature;BMP_pressure;BME280_temperature;BME280_humidity;BME280_pressure;Samples;Min_cycle;Max_cycle;Signal;HPM_P1;HPM_P2
2023/06/03 00:01:05;;;;;;;5.82;1.90;;;14.60;65.30;;;;;;4993825;28;20481;-64
2023/06/03 00:03:34;;;;;;;5.90;1.85;;;14.50;65.40;;;;;;4995435;28;20042;-64
2023/06/03 00:06:02;;;;;;;4.53;1.90;;;14.50;65.60;;;;;;4994668;28;20393;-64
2023/06/03 00:08:29;;;;;;;5.53;2.10;;;14.40;65.80;;;;;;4992574;28;20046;-64
2023/06/03 00:10:56;;;;;;;3.47;1.75;;;14.40;66.00;;;;;;4980070;28;20054;-64
2023/06/03 00:13:23;;;;;;;5.65;2.00;;;14.30;66.00;;;;;;4989110;28;20049;-64
2023/06/03 00:15:50;;;;;;;5.38;1.80;;;14.30;66.20;;;;;;4993198;28;20104;-66
2023/06/03 00:18:17;;;;;;;4.88;1.60;;;14.30;66.20;;;;;;4991294;28;20094;-67
2023/06/03 00:20:47;;;;;;;6.18;2.05;;;14.20;66.50;;;;;;4993737;28;20054;-61
2023/06/03 00:23:15;;;;;;;5.10;1.90;;;14.20;66.60;;;;;;4987882;28;20414;-61
2023/06/03 00:25:42;;;;;;;6.53;2.10;;;14.20;66.60;;;;;;4987081;28;20056;-62
2023/06/03 00:28:10;;;;;;;6.95;2.20;;;14.10;66.80;;;;;;4990948;28;20073;-62
2023/06/03 00:30:37;;;;;;;6.00;2.05;;;14.10;66.90;;;;;;4991468;28;20054;-61
2023/06/03 00:33:04;;;;;;;6.10;2.00;;;14.10;66.90;;;;;;4996202;28;20054;-61
2023/06/03 00:35:31;;;;;;;5.80;1.70;;;14.10;67.10;;;;;;4969480;28;20112;-61
2023/06/03 00:37:58;;;;;;;6.60;1.90;;;14.00;67.10;;;;;;4991795;28;20048;-61
2023/06/03 00:40:26;;;;;;;6.57;2.00;;;14.00;67.20;;;;;;4996369;28;20060;-69
2023/06/03 00:42:53;;;;;;;4.90;2.47;;;14.00;67.40;;;;;;4994553;28;20046;-69
2023/06/03 00:45:20;;;;;;;6.57;2.38;;;13.90;67.60;;;;;;4992010;28;20097;-68
2023/06/03 00:47:47;;;;;;;5.18;1.80;;;13.90;67.50;;;;;;4995396;28;20060;-69
2023/06/03 00:50:15;;;;;;;7.32;2.45;;;13.90;67.60;;;;;;4990703;28;20070;-68
2023/06/03 00:52:43;;;;;;;5.93;2.20;;;13.90;67.80;;;;;;4990155;28;20058;-68
2023/06/03 00:55:10;;;;;;;6.90;2.17;;;13.80;67.90;;;;;;4991891;28;20049;-68
2023/06/03 00:57:39;;;;;;;6.57;2.10;;;13.80;67.90;;;;;;4973388;28;20037;-68
2023/06/03 01:00:07;;;;;;;8.32;2.13;;;13.70;67.90;;;;;;4987806;28;20054;-68
2023/06/03 01:02:36;;;;;;;4.88;1.92;;;13.80;67.90;;;;;;4992590;28;20408;-61
2023/06/03 01:05:04;;;;;;;5.97;1.97;;;13.70;67.80;;;;;;4994574;28;20141;-61
2023/06/03 01:07:43;;;;;;;4.43;2.10;;;13.70;67.90;;;;;;4991211;28;20072;-68
2023/06/03 01:10:20;;;;;;;5.38;2.00;;;13.70;68.10;;;;;;4968175;28;20092;-69
2023/06/03 01:12:56;;;;;;;5.13;2.08;;;13.70;68.20;;;;;;4992384;28;20054;-69
2023/06/03 01:15:26;;;;;;;5.15;2.20;;;13.60;68.20;;;;;;4991691;28;20038;-73
2023/06/03 01:17:57;;;;;;;5.97;2.00;;;13.60;68.40;;;;;;4993000;28;20070;-74
2023/06/03 01:20:26;;;;;;;4.45;1.95;;;13.60;68.70;;;;;;4987876;28;20132;-62
2023/06/03 01:23:00;;;;;;;5.40;2.17;;;13.50;68.60;;;;;;4991685;28;20064;-62
2023/06/03 01:25:29;;;;;;;5.75;1.98;;;13.50;68.50;;;;;;4991395;28;20472;-78
2023/06/03 01:27:57;;;;;;;6.47;2.05;;;13.50;68.70;;;;;;4972200;28;20042;-79
2023/06/03 01:30:24;;;;;;;4.40;1.88;;;13.40;68.70;;;;;;4991305;28;20062;-80
2023/06/03 01:32:53;;;;;;;4.05;1.67;;;13.30;68.90;;;;;;4992869;28;20548;-79
2023/06/03 01:35:20;;;;;;;5.63;1.98;;;13.30;69.10;;;;;;4996604;28;20422;-68
2023/06/03 01:37:47;;;;;;;4.57;2.05;;;13.30;69.20;;;;;;4974306;28;20046;-67
2023/06/03 01:40:17;;;;;;;3.50;1.58;;;13.20;69.30;;;;;;4978291;28;20488;-67
2023/06/03 01:42:45;;;;;;;4.78;1.83;;;13.20;69.40;;;;;;4978659;28;20486;-68
2023/06/03 01:45:12;;;;;;;7.53;2.33;;;13.20;69.60;;;;;;4966426;28;20046;-68
2023/06/03 01:47:39;;;;;;;6.90;2.20;;;13.20;69.50;;;;;;4992169;28;20136;-67
2023/06/03 01:50:07;;;;;;;6.57;2.08;;;13.20;69.40;;;;;;4995841;28;20137;-68
2023/06/03 01:52:34;;;;;;;6.03;2.40;;;13.10;69.60;;;;;;4975222;28;20053;-68
2023/06/03 01:55:01;;;;;;;7.00;2.10;;;13.10;69.70;;;;;;4972277;28;20061;-69
2023/06/03 01:57:30;;;;;;;6.72;2.28;;;13.10;69.80;;;;;;4973708;28;20158;-68
2023/06/03 01:59:58;;;;;;;5.68;2.08;;;13.00;69.90;;;;;;4985100;28;20066;-68
2023/06/03 02:02:25;;;;;;;4.40;2.15;;;13.10;69.70;;;;;;4984533;28;20402;-74
2023/06/03 02:04:56;;;;;;;5.95;2.00;;;13.10;69.60;;;;;;4990462;28;20516;-74
2023/06/03 02:07:26;;;;;;;5.35;2.28;;;13.00;69.90;;;;;;4985369;28;20046;-73
2023/06/03 02:09:53;;;;;;;5.13;2.33;;;13.10;69.70;;;;;;4993409;28;20049;-73
2023/06/03 02:12:20;;;;;;;5.28;1.90;;;13.10;69.60;;;;;;4989622;28;20042;-80
2023/06/03 02:14:47;;;;;;;5.90;2.40;;;13.00;69.90;;;;;;4990441;28;20105;-78
2023/06/03 02:17:16;;;;;;;7.13;2.30;;;13.00;70.00;;;;;;4975334;28;20046;-67
2023/06/03 02:19:43;;;;;;;8.25;2.58;;;12.90;70.20;;;;;;4972087;28;20046;-67
2023/06/03 02:22:10;;;;;;;6.72;2.58;;;12.90;70.20;;;;;;4993979;28;20413;-69
2023/06/03 02:24:38;;;;;;;4.60;2.17;;;12.90;70.30;;;;;;4998079;28;20056;-69
2023/06/03 02:27:07;;;;;;;5.85;2.30;;;12.90;70.30;;;;;;4992081;28;20112;-62
2023/06/03 02:29:33;;;;;;;5.65;2.30;;;13.00;70.20;;;;;;4996545;28;20501;-62
2023/06/03 02:32:00;;;;;;;6.00;2.20;;;12.90;70.20;;;;;;4998946;28;20058;-69
2023/06/03 02:34:29;;;;;;;5.57;2.58;;;12.90;70.10;;;;;;4994049;28;20061;-67
2023/06/03 02:36:56;;;;;;;6.75;2.58;;;12.90;70.20;;;;;;4996807;28;20054;-60
2023/06/03 02:39:23;;;;;;;7.85;2.50;;;12.90;70.30;;;;;;4994933;28;20054;-61
2023/06/03 02:41:50;;;;;;;7.88;2.63;;;12.80;70.60;;;;;;4993628;28;20068;-72
2023/06/03 02:44:18;;;;;;;5.22;2.33;;;12.70;70.80;;;;;;4995626;28;20046;-71
2023/06/03 02:46:46;;;;;;;7.05;2.13;;;12.80;70.80;;;;;;4978944;28;20062;-63
2023/06/03 02:49:14;;;;;;;7.50;3.08;;;12.70;70.80;;;;;;4999506;28;20532;-63
2023/06/03 02:51:42;;;;;;;7.63;2.42;;;12.70;70.70;;;;;;4998431;28;20054;-66
2023/06/03 02:54:10;;;;;;;6.90;2.30;;;12.60;70.80;;;;;;4996456;28;20104;-68
2023/06/03 02:56:37;;;;;;;4.90;2.15;;;12.70;70.80;;;;;;4988186;28;20065;-69
2023/06/03 02:59:05;;;;;;;5.50;2.22;;;12.70;70.50;;;;;;4993748;28;20150;-69
2023/06/03 03:01:32;;;;;;;6.35;2.42;;;12.60;70.60;;;;;;4980928;28;20054;-79
2023/06/03 03:03:59;;;;;;;5.80;2.25;;;12.60;70.90;;;;;;5000264;28;20136;-78
2023/06/03 03:06:26;;;;;;;5.38;2.20;;;12.60;71.00;;;;;;4986882;28;20069;-61
2023/06/03 03:08:54;;;;;;;5.20;2.40;;;12.60;70.90;;;;;;4982075;28;20066;-60
2023/06/03 03:11:28;;;;;;;4.90;2.53;;;12.60;71.00;;;;;;4972821;28;20068;-67
2023/06/03 03:13:58;;;;;;;5.45;2.53;;;12.60;71.20;;;;;;4972671;28;20050;-67
2023/06/03 03:16:27;;;;;;;6.32;2.88;;;12.50;71.30;;;;;;4978032;28;20468;-67
2023/06/03 03:18:56;;;;;;;6.47;2.60;;;12.50;71.50;;;;;;4982486;28;20043;-67
2023/06/03 03:21:23;;;;;;;7.80;2.55;;;12.50;71.50;;;;;;4997846;28;20058;-64
2023/06/03 03:23:51;;;;;;;8.85;2.90;;;12.50;71.70;;;;;;4978415;28;20054;-64
2023/06/03 03:26:24;;;;;;;5.45;2.53;;;12.50;71.80;;;;;;4983431;28;20046;-63
2023/06/03 03:28:53;;;;;;;6.00;2.63;;;12.40;72.00;;;;;;4990642;28;20058;-63
2023/06/03 03:31:21;;;;;;;5.28;2.40;;;12.40;72.10;;;;;;4978481;28;20057;-63
2023/06/03 03:33:49;;;;;;;5.85;2.60;;;12.40;72.30;;;;;;4996107;28;20046;-63
2023/06/03 03:36:20;;;;;;;7.97;2.60;;;12.40;72.30;;;;;;4990051;28;20062;-68
2023/06/03 03:38:54;;;;;;;7.47;2.60;;;12.40;72.40;;;;;;4975201;28;20490;-67
2023/06/03 03:41:23;;;;;;;6.63;2.70;;;12.40;72.30;;;;;;4980786;28;20058;-67
2023/06/03 03:43:51;;;;;;;6.90;2.90;;;12.60;71.80;;;;;;4976783;28;20156;-67
2023/06/03 03:46:18;;;;;;;7.65;3.00;;;12.60;71.60;;;;;;4992184;28;20092;-73
2023/06/03 03:48:46;;;;;;;5.95;2.70;;;12.70;71.30;;;;;;4993973;28;20050;-74
2023/06/03 03:51:13;;;;;;;7.35;2.97;;;12.70;71.00;;;;;;4998292;28;20576;-73
2023/06/03 03:53:48;;;;;;;7.20;2.55;;;12.70;70.80;;;;;;4962390;28;20632;-75
2023/06/03 03:56:23;;;;;;;6.22;2.60;;;12.70;70.70;;;;;;4965711;28;20054;-66
2023/06/03 03:58:55;;;;;;;6.43;2.50;;;12.80;70.50;;;;;;4977650;28;20061;-66
2023/06/03 04:01:28;;;;;;;6.43;2.60;;;12.80;70.20;;;;;;4984864;28;20887;-66
2023/06/03 04:04:06;;;;;;;7.82;2.70;;;12.80;70.20;;;;;;4974871;28;20049;-67
2023/06/03 04:06:36;;;;;;;;;;;12.80;69.90;;;;;;4987622;28;20073;-66
2023/06/03 04:09:04;;;;;;;7.70;2.88;;;12.80;69.90;;;;;;4968803;28;20408;-67
2023/06/03 04:11:37;;;;;;;5.60;2.53;;;12.80;69.60;;;;;;4990141;28;20061;-66
2023/06/03 04:14:08;;;;;;;6.57;2.63;;;12.90;69.50;;;;;;4972364;28;20098;-66
2023/06/03 04:16:51;;;;;;;5.68;2.72;;;12.80;69.60;;;;;;4976583;28;20756;-67
2023/06/03 04:19:27;;;;;;;4.10;1.88;;;12.80;69.70;;;;;;4977372;28;20042;-67
2023/06/03 04:21:56;;;;;;;6.72;2.67;;;12.80;69.30;;;;;;4995123;28;20056;-66
2023/06/03 04:24:22;;;;;;;6.78;2.40;;;12.80;69.20;;;;;;4973146;28;20082;-66
2023/06/03 04:26:51;;;;;;;7.43;2.25;;;12.80;69.10;;;;;;4974060;28;20068;-66
2023/06/03 04:29:18;;;;;;;5.85;2.47;;;12.90;68.80;;;;;;4974184;28;20046;-68
2023/06/03 04:31:48;;;;;;;6.80;2.22;;;12.90;68.50;;;;;;4986577;28;20053;-61
2023/06/03 04:34:15;;;;;;;5.50;2.15;;;13.00;68.20;;;;;;4995314;28;20473;-62
2023/06/03 04:36:42;;;;;;;4.63;2.28;;;13.00;68.00;;;;;;4986166;28;20448;-62
2023/06/03 04:39:11;;;;;;;7.90;2.28;;;13.00;67.80;;;;;;4988203;28;20049;-60
2023/06/03 04:41:40;;;;;;;5.35;2.20;;;13.10;67.40;;;;;;4975053;28;20050;-61
2023/06/03 04:44:11;;;;;;;5.85;2.35;;;13.20;67.10;;;;;;4974688;28;20089;-66
2023/06/03 04:46:40;;;;;;;5.00;2.03;;;13.20;67.20;;;;;;4977756;28;20105;-61
2023/06/03 04:49:08;;;;;;;4.70;1.92;;;13.10;67.30;;;;;;4980088;28;20062;-61
2023/06/03 04:51:36;;;;;;;8.93;2.47;;;13.10;67.10;;;;;;4973893;28;20060;-67
2023/06/03 04:54:06;;;;;;;4.97;2.00;;;13.20;66.90;;;;;;4996000;28;20062;-67
2023/06/03 04:56:38;;;;;;;5.55;2.10;;;13.20;66.70;;;;;;4974537;28;20080;-63
2023/06/03 04:59:06;;;;;;;4.72;2.13;;;13.20;66.70;;;;;;4977749;28;20413;-63
2023/06/03 05:01:44;;;;;;;5.60;1.88;;;13.20;66.10;;;;;;4976531;28;20141;-67
2023/06/03 05:04:11;;;;;;;5.00;1.85;;;13.20;66.00;;;;;;4991879;28;20061;-64
2023/06/03 05:06:40;;;;;;;4.75;1.80;;;13.20;65.50;;;;;;4991972;28;20056;-63
2023/06/03 05:09:09;;;;;;;4.88;2.05;;;13.20;65.30;;;;;;4977182;28;20050;-63
2023/06/03 05:11:37;;;;;;;3.65;1.60;;;13.30;65.10;;;;;;4975365;28;20523;-63
2023/06/03 05:14:07;;;;;;;5.35;1.95;;;13.30;65.00;;;;;;4975840;28;20125;-64
2023/06/03 05:16:34;;;;;;;6.90;1.95;;;13.30;64.90;;;;;;4977751;28;20046;-63
2023/06/03 05:19:04;;;;;;;4.63;1.90;;;13.30;64.60;;;;;;4991120;28;20539;-63
2023/06/03 05:21:31;;;;;;;6.30;1.77;;;13.30;64.60;;;;;;4985163;28;20537;-63
2023/06/03 05:23:58;;;;;;;4.00;1.60;;;13.30;64.30;;;;;;4976995;28;20109;-63
2023/06/03 05:26:26;;;;;;;3.60;1.58;;;13.40;64.30;;;;;;4991655;28;20405;-63
2023/06/03 05:28:53;;;;;;;4.35;1.95;;;13.40;64.00;;;;;;4975734;28;20058;-64
2023/06/03 05:31:20;;;;;;;5.63;1.90;;;13.50;63.80;;;;;;4977918;28;20111;-63
2023/06/03 05:33:47;;;;;;;5.82;1.73;;;13.50;63.80;;;;;;4993835;28;20046;-63
2023/06/03 05:36:19;;;;;;;;;;;13.50;63.60;;;;;;4978381;28;20046;-63
2023/06/03 05:38:47;;;;;;;5.28;1.80;;;13.50;63.50;;;;;;4969569;28;19969;-63
2023/06/03 05:41:16;;;;;;;4.97;2.15;;;13.60;63.40;;;;;;4986118;28;20038;-63
2023/06/03 05:43:43;;;;;;;4.65;1.90;;;13.60;63.00;;;;;;4975208;28;20071;-63
2023/06/03 05:46:10;;;;;;;4.15;1.85;;;13.60;62.70;;;;;;4973747;28;20050;-64
2023/06/03 05:48:37;;;;;;;4.10;1.33;;;13.60;62.60;;;;;;4977090;28;20577;-64
2023/06/03 05:51:07;;;;;;;6.70;1.73;;;13.60;62.60;;;;;;4988006;28;20414;-63
2023/06/03 05:53:43;;;;;;;5.72;1.50;;;13.60;62.60;;;;;;4972966;28;20042;-63
2023/06/03 05:56:11;;;;;;;5.43;1.50;;;13.60;62.70;;;;;;4978345;28;20556;-63
2023/06/03 05:58:39;;;;;;;5.10;1.67;;;13.70;62.20;;;;;;4979333;28;20138;-62
2023/06/03 06:01:06;;;;;;;5.50;1.60;;;13.70;62.20;;;;;;4991643;28;20054;-63
2023/06/03 06:03:33;;;;;;;6.60;1.65;;;13.70;62.10;;;;;;4982927;28;20494;-63
2023/06/03 06:06:01;;;;;;;4.07;1.38;;;13.70;61.80;;;;;;4974154;28;20073;-64
2023/06/03 06:08:28;;;;;;;4.38;1.35;;;13.80;61.50;;;;;;4981456;28;20058;-63
2023/06/03 06:10:57;;;;;;;3.83;1.40;;;13.80;60.90;;;;;;4979993;28;20064;-63
2023/06/03 06:13:24;;;;;;;3.28;1.35;;;13.80;60.80;;;;;;4994848;28;20492;-64
2023/06/03 06:16:03;;;;;;;4.45;1.70;;;13.80;60.80;;;;;;4979879;28;20046;-63
2023/06/03 06:18:31;;;;;;;4.53;1.35;;;13.90;60.70;;;;;;4990840;28;20486;-63
2023/06/03 06:20:58;;;;;;;7.68;1.85;;;14.00;60.00;;;;;;4977717;28;20042;-72
2023/06/03 06:23:26;;;;;;;6.55;1.48;;;14.00;60.10;;;;;;4980465;28;20053;-72
2023/06/03 06:25:54;;;;;;;5.90;1.55;;;14.10;59.80;;;;;;4994599;28;20066;-63
2023/06/03 06:28:27;;;;;;;4.82;1.58;;;14.20;59.80;;;;;;4994850;28;20127;-63
2023/06/03 06:31:04;;;;;;;4.78;1.42;;;14.30;59.60;;;;;;4977755;28;20072;-61
2023/06/03 06:33:34;;;;;;;4.57;1.60;;;14.30;59.20;;;;;;4979854;28;20058;-61
2023/06/03 06:36:02;;;;;;;4.85;1.50;;;14.50;59.10;;;;;;4979979;28;20332;-61
2023/06/03 06:38:29;;;;;;;4.50;1.50;;;14.70;58.60;;;;;;4997815;28;20133;-61
2023/06/03 06:40:58;;;;;;;4.22;1.70;;;14.80;58.30;;;;;;4980763;28;20048;-74
2023/06/03 06:43:28;;;;;;;2.83;1.25;;;14.90;58.30;;;;;;4994775;28;20050;-74
2023/06/03 06:46:02;;;;;;;5.50;1.55;;;15.10;57.80;;;;;;4995771;28;20695;-74
2023/06/03 06:48:30;;;;;;;4.07;1.58;;;15.20;57.30;;;;;;4991779;28;20066;-75
2023/06/03 06:51:01;;;;;;;3.25;1.38;;;15.40;57.00;;;;;;4979192;28;20077;-75
2023/06/03 06:53:35;;;;;;;5.15;1.77;;;15.60;57.00;;;;;;4977459;28;20050;-76
2023/06/03 06:56:10;;;;;;;4.85;1.88;;;15.80;56.90;;;;;;4985114;28;20473;-72
2023/06/03 06:58:43;;;;;;;3.88;1.80;;;16.00;56.50;;;;;;4979972;28;20128;-74
2023/06/03 07:01:11;;;;;;;3.85;1.80;;;16.10;55.90;;;;;;4978831;28;20042;-74
2023/06/03 07:03:43;;;;;;;7.38;2.00;;;16.30;55.70;;;;;;4978524;28;20057;-74
2023/06/03 07:06:11;;;;;;;3.22;1.70;;;16.50;55.40;;;;;;4966680;28;20109;-74
2023/06/03 07:08:39;;;;;;;5.07;2.00;;;16.60;55.10;;;;;;4980340;28;20069;-74
2023/06/03 07:11:07;;;;;;;3.47;1.50;;;16.70;55.00;;;;;;4996524;28;20088;-68
2023/06/03 07:14:02;;;;;;;5.80;1.55;;;16.90;54.50;;;;;;4989767;28;20057;-69
2023/06/03 07:16:29;;;;;;;5.72;1.63;;;17.10;54.60;;;;;;4979038;28;20047;-80
2023/06/03 07:18:56;;;;;;;4.22;2.15;;;17.30;54.60;;;;;;4980624;28;20085;-80
2023/06/03 07:21:34;;;;;;;4.40;1.50;;;17.40;54.30;;;;;;4981286;28;20177;-67
2023/06/03 07:24:03;;;;;;;2.50;1.40;;;17.50;53.80;;;;;;4978489;28;20077;-67
2023/06/03 07:26:32;;;;;;;6.60;2.08;;;17.70;53.60;;;;;;4990937;28;20410;-68
2023/06/03 07:29:01;;;;;;;2.88;1.65;;;17.80;53.40;;;;;;4972159;28;20045;-67
2023/06/03 07:31:31;;;;;;;4.10;2.03;;;17.90;53.10;;;;;;4993359;28;20165;-67
2023/06/03 07:33:58;;;;;;;5.72;1.73;;;18.00;53.10;;;;;;4995762;28;20472;-68
2023/06/03 07:36:30;;;;;;;3.80;1.80;;;18.30;52.60;;;;;;4963128;28;20097;-68
2023/06/03 07:39:02;;;;;;;4.07;2.00;;;18.40;52.40;;;;;;4994937;28;20049;-67
2023/06/03 07:41:38;;;;;;;5.65;1.65;;;18.50;52.00;;;;;;4993142;28;20050;-68
2023/06/03 07:44:10;;;;;;;3.47;1.60;;;18.70;51.40;;;;;;4975762;28;20069;-68
2023/06/03 07:46:40;;;;;;;4.38;1.67;;;18.80;51.70;;;;;;4994947;28;20074;-65
2023/06/03 07:49:12;;;;;;;3.95;1.80;;;19.00;51.20;;;;;;4995525;28;20058;-68
2023/06/03 07:51:45;;;;;;;4.13;1.70;;;19.10;51.10;;;;;;4996278;28;20058;-66
2023/06/03 07:54:12;;;;;;;4.85;2.10;;;19.10;51.50;;;;;;4975580;28;20061;-66
2023/06/03 07:56:39;;;;;;;4.10;1.90;;;19.20;51.50;;;;;;4986069;28;20066;-67
2023/06/03 07:59:09;;;;;;;4.03;1.95;;;19.40;51.10;;;;;;4993925;28;20057;-67
2023/06/03 08:01:36;;;;;;;;;;;19.60;50.90;;;;;;4990970;28;20057;-71
2023/06/03 08:04:06;;;;;;;2.90;1.48;;;19.70;51.20;;;;;;4992279;28;19937;-71
2023/06/03 08:06:37;;;;;;;4.13;1.70;;;19.90;50.60;;;;;;4994931;28;20141;-63
2023/06/03 08:09:04;;;;;;;3.70;1.73;;;20.00;50.00;;;;;;4996375;28;20524;-63
2023/06/03 08:11:33;;;;;;;5.10;1.85;;;20.10;49.20;;;;;;4995009;28;20066;-63
2023/06/03 08:14:00;;;;;;;5.00;2.10;;;20.20;49.90;;;;;;4984983;28;20045;-64
2023/06/03 08:16:28;;;;;;;4.55;1.90;;;20.30;50.50;;;;;;4995305;28;20046;-64
2023/06/03 08:18:55;;;;;;;6.13;1.95;;;20.30;49.50;;;;;;4995770;28;20058;-64
2023/06/03 08:21:28;;;;;;;3.78;1.70;;;20.40;49.50;;;;;;4973116;28;20062;-64
2023/06/03 08:23:55;;;;;;;5.97;2.30;;;20.50;49.30;;;;;;4991557;28;20081;-64
2023/06/03 08:26:22;;;;;;;6.13;2.05;;;20.50;49.30;;;;;;4990856;28;20046;-64
2023/06/03 08:28:49;;;;;;;5.40;2.30;;;20.70;49.40;;;;;;4994242;28;20057;-64
2023/06/03 08:31:16;;;;;;;5.53;2.67;;;20.90;49.20;;;;;;4993920;28;20057;-64
2023/06/03 08:33:44;;;;;;;4.00;2.00;;;21.00;48.70;;;;;;4994596;28;20065;-64
2023/06/03 08:36:11;;;;;;;5.00;1.95;;;21.10;48.80;;;;;;4991998;28;20497;-64
2023/06/03 08:38:40;;;;;;;4.15;1.88;;;21.30;47.90;;;;;;4993714;28;20057;-64
2023/06/03 08:41:07;;;;;;;5.57;2.58;;;21.40;47.40;;;;;;4989474;28;20054;-64
2023/06/03 08:43:39;;;;;;;4.88;2.28;;;21.60;47.60;;;;;;4992544;28;20058;-64
2023/06/03 08:46:18;;;;;;;4.40;2.28;;;21.70;46.70;;;;;;4996532;28;20039;-64
2023/06/03 08:48:49;;;;;;;3.80;2.13;;;21.70;45.80;;;;;;4993476;28;20061;-64
2023/06/03 08:51:21;;;;;;;4.07;2.20;;;21.70;45.80;;;;;;4988804;28;20054;-63
2023/06/03 08:53:50;;;;;;;4.35;2.30;;;21.80;45.00;;;;;;4992373;28;20049;-63
2023/06/03 08:56:19;;;;;;;5.05;2.58;;;22.00;45.60;;;;;;4976019;28;20042;-63
2023/06/03 08:58:48;;;;;;;4.88;2.33;;;22.10;45.60;;;;;;4995416;28;20066;-65
2023/06/03 09:01:17;;;;;;;4.40;2.42;;;22.30;44.70;;;;;;4992273;28;20512;-64
2023/06/03 09:03:46;;;;;;;3.80;2.10;;;22.50;44.10;;;;;;4970863;28;20053;-64
2023/06/03 09:06:14;;;;;;;6.75;2.08;;;22.60;44.10;;;;;;4992230;28;20061;-64
2023/06/03 09:08:42;;;;;;;4.18;1.98;;;22.60;43.60;;;;;;4992645;28;20046;-65
2023/06/03 09:11:12;;;;;;;5.03;2.38;;;22.70;43.00;;;;;;4992788;28;20100;-65
2023/06/03 09:13:40;;;;;;;4.28;1.92;;;22.70;42.00;;;;;;4992285;28;20474;-64
2023/06/03 09:16:09;;;;;;;5.68;3.08;;;22.80;42.70;;;;;;4995425;28;20065;-64
2023/06/03 09:18:36;;;;;;;6.78;3.30;;;23.00;42.40;;;;;;4991696;28;20057;-64
2023/06/03 09:21:09;;;;;;;4.88;2.58;;;23.00;42.00;;;;;;4993970;28;20057;-63
2023/06/03 09:23:38;;;;;;;4.60;2.33;;;23.10;41.40;;;;;;4968708;28;20053;-63
2023/06/03 09:26:05;;;;;;;6.63;2.80;;;23.20;41.50;;;;;;4995930;28;20575;-63
2023/06/03 09:28:33;;;;;;;5.28;2.35;;;23.30;41.50;;;;;;4997039;28;20054;-62
2023/06/03 09:31:01;;;;;;;4.53;2.10;;;23.40;41.10;;;;;;5000018;28;20114;-63
2023/06/03 09:33:29;;;;;;;6.38;2.33;;;23.40;40.80;;;;;;5000717;28;20081;-64
2023/06/03 09:36:12;;;;;;;4.63;2.10;;;23.40;41.00;;;;;;5003744;28;20049;-64
2023/06/03 09:38:50;;;;;;;4.70;2.15;;;23.50;40.60;;;;;;4997443;28;20509;-64
2023/06/03 09:41:18;;;;;;;4.43;2.03;;;23.50;40.10;;;;;;4996757;28;20042;-64
2023/06/03 09:44:06;;;;;;;4.65;2.00;;;23.60;39.70;;;;;;4999374;28;20054;-64
2023/06/03 09:46:34;;;;;;;4.45;2.17;;;23.60;39.70;;;;;;5001887;28;20553;-64
2023/06/03 09:49:12;;;;;;;5.53;2.08;;;23.60;39.30;;;;;;4999638;28;20054;-64
2023/06/03 09:51:46;;;;;;;5.05;2.30;;;23.70;39.60;;;;;;5000467;28;20046;-64
2023/06/03 09:54:15;;;;;;;4.35;1.88;;;23.80;39.70;;;;;;5002270;28;20056;-64
2023/06/03 09:56:43;;;;;;;5.13;2.47;;;23.90;39.20;;;;;;4997913;28;20152;-64
2023/06/03 09:59:14;;;;;;;5.78;2.13;;;24.00;39.50;;;;;;4999550;28;20042;-64
2023/06/03 10:01:41;;;;;;;4.40;2.30;;;24.10;39.50;;;;;;4995899;28;20057;-64
2023/06/03 10:04:08;;;;;;;5.95;3.92;;;24.10;39.60;;;;;;4996515;28;20046;-64
2023/06/03 10:06:38;;;;;;;7.70;3.58;;;24.20;39.00;;;;;;4997509;28;20064;-64
2023/06/03 10:09:22;;;;;;;;;;;24.20;39.10;;;;;;5001374;28;20137;-64
2023/06/03 10:11:51;;;;;;;5.13;3.10;;;24.30;38.90;;;;;;4996866;28;19929;-64
2023/06/03 10:14:22;;;;;;;6.40;3.33;;;24.50;39.30;;;;;;5000630;28;20045;-64
2023/06/03 10:17:06;;;;;;;5.40;3.33;;;24.60;39.20;;;;;;4995805;28;20054;-64
2023/06/03 10:19:35;;;;;;;7.43;4.38;;;24.70;39.20;;;;;;4997047;28;20711;-64
2023/06/03 10:22:03;;;;;;;7.50;4.30;;;24.80;38.30;;;;;;5000893;28;20057;-64
2023/06/03 10:24:37;;;;;;;6.35;3.55;;;24.80;37.50;;;;;;5000569;28;20100;-64
2023/06/03 10:27:05;;;;;;;5.88;2.90;;;24.80;37.80;;;;;;4994312;28;20452;-64
2023/06/03 10:29:33;;;;;;;7.53;3.25;;;24.90;37.60;;;;;;5000652;28;20050;-64
2023/06/03 10:32:02;;;;;;;5.10;2.70;;;24.90;37.40;;;;;;4997240;28;20066;-64
2023/06/03 10:34:29;;;;;;;5.60;2.55;;;25.00;37.00;;;;;;4981264;28;20643;-64
2023/06/03 10:36:57;;;;;;;7.30;2.45;;;25.10;37.60;;;;;;4999660;28;20422;-64
2023/06/03 10:39:26;;;;;;;5.57;2.67;;;25.10;37.60;;;;;;4998934;28;21361;-64
2023/06/03 10:41:57;;;;;;;4.45;2.38;;;25.10;37.30;;;;;;4979987;28;20061;-65
2023/06/03 10:44:25;;;;;;;6.38;2.38;;;25.20;37.40;;;;;;4993476;28;20046;-64
2023/06/03 10:46:58;;;;;;;3.75;2.00;;;25.30;36.60;;;;;;4981583;28;20421;-63
2023/06/03 10:49:31;;;;;;;3.63;2.05;;;25.20;36.40;;;;;;4996597;28;20046;-63
2023/06/03 10:52:14;;;;;;;4.53;2.15;;;25.30;37.10;;;;;;4992333;28;20060;-63
2023/06/03 10:54:52;;;;;;;4.10;2.15;;;25.30;36.80;;;;;;4997292;28;20065;-63
2023/06/03 10:57:26;;;;;;;4.65;2.22;;;25.40;36.90;;;;;;4994653;28;20053;-64
2023/06/03 10:59:53;;;;;;;5.10;2.60;;;25.50;36.60;;;;;;4993495;28;20072;-64
2023/06/03 11:02:20;;;;;;;5.25;2.92;;;25.60;36.90;;;;;;4992751;28;20053;-63
2023/06/03 11:04:47;;;;;;;6.45;2.35;;;25.60;36.70;;;;;;4992597;28;20050;-63
2023/06/03 11:07:45;;;;;;;6.03;2.80;;;25.60;36.10;;;;;;4997328;28;20053;-63
2023/06/03 11:10:44;;;;;;;6.25;3.55;;;25.80;36.50;;;;;;4993989;28;20037;-64
2023/06/03 11:13:40;;;;;;;5.63;2.70;;;25.80;35.90;;;;;;4998356;28;20068;-64
2023/06/03 11:16:07;;;;;;;5.65;2.65;;;25.70;36.10;;;;;;4997803;28;20451;-63
2023/06/03 11:18:34;;;;;;;4.95;2.40;;;25.80;35.90;;;;;;4993781;28;20054;-63
2023/06/03 11:21:01;;;;;;;7.18;2.47;;;25.80;36.10;;;;;;4994265;28;20054;-63
2023/06/03 11:23:41;;;;;;;3.83;2.40;;;25.90;35.80;;;;;;4992790;28;20133;-62
2023/06/03 11:26:33;;;;;;;4.45;2.42;;;25.90;35.70;;;;;;4990689;28;20054;-63
2023/06/03 11:29:04;;;;;;;4.47;2.38;;;25.90;35.30;;;;;;4992677;28;20097;-64
2023/06/03 11:31:32;;;;;;;5.35;2.42;;;26.00;35.20;;;;;;4998742;28;20505;-64
2023/06/03 11:34:21;;;;;;;4.97;2.30;;;26.00;35.30;;;;;;4996412;28;20177;-63
2023/06/03 11:36:48;;;;;;;;;;;26.00;35.70;;;;;;4995186;28;20061;-63
2023/06/03 11:39:15;;;;;;;6.22;2.33;;;26.00;36.00;;;;;;4992148;28;19937;-63
2023/06/03 11:42:05;;;;;;;4.05;2.08;;;25.80;36.10;;;;;;4992472;28;20054;-64
2023/06/03 11:44:33;;;;;;;;;;;25.60;35.90;;;;;;4979273;28;20080;-64
2023/06/03 11:47:00;;;;;;;5.47;2.30;;;25.60;35.80;;;;;;4990272;28;19933;-64
2023/06/03 11:49:27;;;;;;;5.38;2.50;;;25.70;35.80;;;;;;4990634;28;20061;-63
2023/06/03 11:51:58;;;;;;;4.43;2.30;;;25.80;35.60;;;;;;4995676;28;20405;-64
2023/06/03 11:54:25;;;;;;;4.07;2.00;;;25.90;35.50;;;;;;4972488;28;20041;-64
2023/06/03 11:56:54;;;;;;;5.05;2.20;;;25.90;35.40;;;;;;4985857;28;20043;-64
2023/06/03 11:59:26;;;;;;;4.13;2.22;;;26.10;34.90;;;;;;4995453;28;20131;-64
2023/06/03 12:01:59;;;;;;;3.50;1.92;;;26.00;34.80;;;;;;4995446;28;20151;-64
2023/06/03 12:04:26;;;;;;;4.53;2.55;;;25.80;34.50;;;;;;4996701;28;20076;-64
2023/06/03 12:06:54;;;;;;;4.35;2.00;;;25.90;34.30;;;;;;4994822;28;20136;-64
2023/06/03 12:09:22;;;;;;;4.55;1.90;;;25.90;34.60;;;;;;4994826;28;20050;-64
2023/06/03 12:11:49;;;;;;;3.72;1.90;;;25.90;34.40;;;;;;4995773;28;20146;-64
2023/06/03 12:14:27;;;;;;;5.65;2.28;;;25.90;34.40;;;;;;4990909;28;20046;-63
2023/06/03 12:16:55;;;;;;;3.92;1.90;;;25.90;34.90;;;;;;4992237;28;20050;-64
2023/06/03 12:19:23;;;;;;;4.68;2.20;;;26.00;34.80;;;;;;4995614;28;20065;-64
2023/06/03 12:21:58;;;;;;;3.83;1.90;;;26.00;35.30;;;;;;4996669;28;20053;-64
2023/06/03 12:24:31;;;;;;;4.43;2.15;;;26.10;35.00;;;;;;4996233;28;20041;-63
2023/06/03 12:27:10;;;;;;;4.53;2.30;;;26.10;34.50;;;;;;4996196;28;20077;-63
2023/06/03 12:29:41;;;;;;;4.00;2.08;;;26.10;34.00;;;;;;4996629;28;20069;-63
2023/06/03 12:32:08;;;;;;;4.90;2.20;;;26.20;34.80;;;;;;4995527;28;20074;-66
2023/06/03 12:34:37;;;;;;;6.10;2.58;;;26.20;34.40;;;;;;4995466;28;20078;-63
2023/06/03 12:37:05;;;;;;;6.18;2.55;;;26.00;34.50;;;;;;4992231;28;20042;-65
2023/06/03 12:39:44;;;;;;;4.55;2.33;;;25.90;33.70;;;;;;4992746;28;20046;-64
2023/06/03 12:42:12;;;;;;;5.50;2.95;;;25.80;34.10;;;;;;4992577;28;20074;-65
2023/06/03 12:44:50;;;;;;;4.18;2.05;;;25.80;34.50;;;;;;4997093;28;20120;-65
2023/06/03 12:47:19;;;;;;;4.20;2.00;;;25.80;34.40;;;;;;4995133;28;20045;-64
2023/06/03 12:50:05;;;;;;;3.85;2.05;;;25.80;34.90;;;;;;4995210;28;20108;-64
2023/06/03 12:52:34;;;;;;;4.57;2.22;;;25.90;34.70;;;;;;4993502;28;20137;-64
2023/06/03 12:55:03;;;;;;;3.00;1.83;;;25.80;34.50;;;;;;4994777;28;20129;-63
2023/06/03 12:57:31;;;;;;;3.90;2.00;;;25.80;34.50;;;;;;4985130;28;20085;-65
2023/06/03 12:59:59;;;;;;;6.97;1.90;;;25.80;35.10;;;;;;4987645;28;20046;-65
2023/06/03 13:02:26;;;;;;;4.20;2.20;;;25.70;34.40;;;;;;4991613;28;20054;-63